Time;durP1;ratioP1;P1;durP2;ratioP2;P2;SDS_P1;SDS_P2;PMS_P1;PMS_P2;Temp;Humidity;BMP_temperature;BMP_pressure;BME280_temperature;BME280_humidity;BME280_pressure;Samples;Min_cycle;Max_cycle;Signal;HPM_P1;HPM_P2
2023/12/16 00:00:32;;;;;;;20.65;8.60;;;6.80;99.90;;;;;;5039156;28;20769;-69
2023/12/16 00:02:57;;;;;;;23.92;8.95;;;6.80;99.90;;;;;;5033154;28;20035;-70
2023/12/16 00:05:24;;;;;;;23.67;8.40;;;6.80;99.90;;;;;;5037982;28;20031;-69
2023/12/16 00:07:49;;;;;;;26.95;8.40;;;6.90;99.90;;;;;;5032623;28;20029;-68
2023/12/16 00:10:16;;;;;;;18.70;7.40;;;6.80;99.90;;;;;;5040412;28;20079;-69
2023/12/16 00:12:42;;;;;;;25.33;9.63;;;6.80;99.90;;;;;;5040370;28;20099;-69
2023/12/16 00:15:10;;;;;;;21.23;8.48;;;6.90;99.90;;;;;;5038406;28;20480;-69
2023/12/16 00:17:35;;;;;;;28.05;8.68;;;6.80;99.90;;;;;;5036977;28;20471;-70
2023/12/16 00:20:01;;;;;;;24.73;8.88;;;6.80;99.90;;;;;;5032294;28;20031;-64
2023/12/16 00:22:27;;;;;;;26.17;8.57;;;6.80;99.90;;;;;;5039359;28;20505;-69
2023/12/16 00:24:52;;;;;;;27.08;9.13;;;6.90;99.90;;;;;;5038076;28;20121;-69
2023/12/16 00:27:18;;;;;;;23.10;8.98;;;6.90;99.90;;;;;;5033273;28;20025;-69
2023/12/16 00:29:44;;;;;;;29.38;8.65;;;6.90;99.90;;;;;;5038096;28;20037;-69
2023/12/16 00:32:09;;;;;;;19.52;7.57;;;6.90;99.90;;;;;;5035480;28;20032;-70
2023/12/16 00:34:35;;;;;;;24.90;8.38;;;6.90;99.90;;;;;;5036310;28;20041;-69
2023/12/16 00:37:05;;;;;;;23.17;7.82;;;6.90;99.90;;;;;;5034938;28;20057;-69
2023/12/16 00:39:31;;;;;;;21.85;8.30;;;6.90;99.90;;;;;;5032948;28;20390;-69
2023/12/16 00:41:56;;;;;;;28.00;8.73;;;6.90;99.90;;;;;;5037608;28;20028;-69
2023/12/16 00:44:22;;;;;;;18.95;8.07;;;6.90;99.90;;;;;;5029606;28;20062;-70
2023/12/16 00:46:47;;;;;;;25.60;9.68;;;6.90;99.90;;;;;;5034604;28;20106;-69
2023/12/16 00:49:13;;;;;;;27.95;9.20;;;6.90;99.90;;;;;;5033136;28;20040;-69
2023/12/16 00:51:39;;;;;;;23.98;8.55;;;6.90;99.90;;;;;;5037203;28;20021;-69
2023/12/16 00:54:04;;;;;;;21.63;8.07;;;6.90;99.90;;;;;;5037142;28;20055;-70
2023/12/16 00:56:30;;;;;;;26.60;8.85;;;6.90;99.90;;;;;;5034420;28;20600;-68
2023/12/16 00:58:56;;;;;;;21.02;7.57;;;6.90;99.90;;;;;;5039730;28;20473;-69
2023/12/16 01:01:22;;;;;;;25.30;9.07;;;6.90;99.90;;;;;;5039522;28;20549;-66
2023/12/16 01:03:48;;;;;;;25.17;8.73;;;6.90;99.90;;;;;;5031412;28;20021;-70
2023/12/16 01:06:13;;;;;;;21.58;7.53;;;6.90;99.90;;;;;;5034241;28;20032;-71
2023/12/16 01:08:39;;;;;;;28.45;8.20;;;6.80;99.90;;;;;;5035090;28;20028;-70
2023/12/16 01:11:05;;;;;;;29.88;8.40;;;6.80;99.90;;;;;;5031711;28;20033;-69
2023/12/16 01:13:31;;;;;;;21.38;7.32;;;6.90;99.90;;;;;;5040206;28;20559;-71
2023/12/16 01:15:56;;;;;;;20.13;7.72;;;6.90;99.90;;;;;;5036735;28;20025;-71
2023/12/16 01:18:23;;;;;;;23.23;7.90;;;6.90;99.90;;;;;;5038169;28;20033;-70
2023/12/16 01:20:50;;;;;;;32.78;8.70;;;6.90;99.90;;;;;;5036472;28;20029;-70
2023/12/16 01:23:15;;;;;;;26.10;8.55;;;6.90;99.90;;;;;;5038162;28;20021;-70
2023/12/16 01:25:41;;;;;;;23.50;7.28;;;6.90;99.90;;;;;;5035504;28;20490;-70
2023/12/16 01:28:06;;;;;;;27.23;9.05;;;6.90;99.90;;;;;;5038304;28;20055;-71
2023/12/16 01:30:32;;;;;;;18.60;8.50;;;6.90;99.90;;;;;;5029992;28;20022;-70
2023/12/16 01:32:58;;;;;;;21.65;9.00;;;6.90;99.90;;;;;;5037056;28;20058;-70
2023/12/16 01:35:23;;;;;;;25.70;9.20;;;6.90;99.90;;;;;;5037727;28;20035;-72
2023/12/16 01:37:49;;;;;;;26.83;9.95;;;6.90;99.90;;;;;;5033740;28;20033;-70
2023/12/16 01:40:14;;;;;;;24.40;9.05;;;6.90;99.90;;;;;;5037504;28;20657;-70
2023/12/16 01:42:40;;;;;;;20.75;8.63;;;6.90;99.90;;;;;;5034168;28;20028;-70
2023/12/16 01:45:06;;;;;;;26.08;9.50;;;6.90;99.90;;;;;;5037099;28;20029;-70
2023/12/16 01:47:32;;;;;;;22.38;8.02;;;6.90;99.90;;;;;;5040365;28;20035;-70
2023/12/16 01:49:58;;;;;;;28.20;9.63;;;6.90;99.90;;;;;;5037021;28;20197;-71
2023/12/16 01:52:23;;;;;;;26.83;8.35;;;6.90;99.90;;;;;;5038884;28;20020;-70
2023/12/16 01:54:49;;;;;;;24.20;10.40;;;7.00;99.90;;;;;;5039724;28;20031;-71
2023/12/16 01:57:15;;;;;;;28.02;10.07;;;7.00;99.90;;;;;;5034770;28;20052;-70
2023/12/16 01:59:41;;;;;;;27.73;10.52;;;7.00;99.90;;;;;;5040245;28;20033;-70
2023/12/16 02:02:07;;;;;;;25.50;9.23;;;6.90;99.90;;;;;;5032529;28;20084;-71
2023/12/16 02:04:34;;;;;;;22.23;9.15;;;6.90;99.90;;;;;;5041387;28;20514;-70
2023/12/16 02:07:00;;;;;;;22.65;8.70;;;6.90;99.90;;;;;;5036052;28;20032;-71
2023/12/16 02:09:26;;;;;;;26.70;9.52;;;6.90;99.90;;;;;;5039853;28;20024;-70
2023/12/16 02:11:52;;;;;;;27.17;9.25;;;6.90;99.90;;;;;;5038435;28;20506;-71
2023/12/16 02:14:18;;;;;;;18.40;8.32;;;6.90;99.90;;;;;;5039343;28;20112;-70
2023/12/16 02:16:43;;;;;;;23.38;8.43;;;6.90;99.90;;;;;;5038985;28;20103;-70
2023/12/16 02:19:14;;;;;;;25.42;8.15;;;6.90;99.90;;;;;;5039517;28;20044;-70
2023/12/16 02:21:40;;;;;;;20.38;8.95;;;7.00;99.90;;;;;;5037193;28;20546;-70
2023/12/16 02:27:27;;;;;;;25.40;8.63;;;6.90;99.90;;;;;;5036035;28;20483;-72
2023/12/16 02:29:53;;;;;;;24.00;9.02;;;6.90;99.90;;;;;;5039760;28;20425;-71
2023/12/16 02:32:18;;;;;;;23.58;8.55;;;7.00;99.90;;;;;;5034335;28;20128;-70
2023/12/16 02:34:44;;;;;;;26.58;9.60;;;6.90;99.90;;;;;;5039533;28;20017;-70
2023/12/16 02:37:09;;;;;;;20.38;9.55;;;6.90;99.90;;;;;;5040027;28;20390;-71
2023/12/16 02:39:35;;;;;;;21.60;8.77;;;7.00;99.90;;;;;;5039523;28;20084;-71
2023/12/16 02:42:00;;;;;;;28.05;9.55;;;7.00;99.90;;;;;;5037544;28;20434;-71
2023/12/16 02:44:26;;;;;;;29.20;9.80;;;7.00;99.90;;;;;;5039960;28;20021;-70
2023/12/16 02:46:51;;;;;;;24.70;9.43;;;7.00;99.90;;;;;;5034479;28;20491;-70
2023/12/16 02:49:17;;;;;;;23.52;8.48;;;7.00;99.90;;;;;;5038160;28;20033;-70
2023/12/16 02:51:42;;;;;;;27.17;8.73;;;7.00;99.90;;;;;;5035415;28;20034;-68
2023/12/16 02:54:08;;;;;;;27.05;10.07;;;7.00;99.90;;;;;;5041408;28;20125;-71
2023/12/16 02:56:33;;;;;;;23.10;9.55;;;7.00;99.90;;;;;;5036432;28;20032;-71
2023/12/16 02:58:59;;;;;;;21.33;8.60;;;7.00;99.90;;;;;;5034123;28;20111;-72
2023/12/16 03:01:24;;;;;;;22.38;8.93;;;7.00;99.90;;;;;;5034691;28;20028;-70
2023/12/16 03:03:50;;;;;;;26.73;9.77;;;7.00;99.90;;;;;;5035464;28;20029;-70
2023/12/16 03:06:15;;;;;;;24.05;8.18;;;7.00;99.90;;;;;;5036796;28;20029;-70
2023/12/16 03:08:41;;;;;;;26.50;9.57;;;7.00;99.90;;;;;;5030930;28;20032;-71
2023/12/16 03:11:06;;;;;;;26.25;9.85;;;7.00;99.90;;;;;;5039392;28;20079;-70
2023/12/16 03:13:32;;;;;;;27.45;9.63;;;7.00;99.90;;;;;;5036003;28;20036;-71
2023/12/16 03:15:57;;;;;;;20.75;9.02;;;7.00;99.90;;;;;;5035237;28;20032;-70
2023/12/16 03:18:23;;;;;;;30.13;10.73;;;7.00;99.90;;;;;;5037839;28;20043;-71
2023/12/16 03:20:52;;;;;;;19.45;8.05;;;7.00;99.90;;;;;;5036837;28;20657;-71
2023/12/16 03:23:18;;;;;;;27.45;9.02;;;6.90;99.90;;;;;;5037058;28;20029;-70
2023/12/16 03:25:44;;;;;;;18.60;8.57;;;7.00;99.90;;;;;;5038695;28;20029;-71
2023/12/16 03:28:10;;;;;;;23.95;8.70;;;6.90;99.90;;;;;;5040008;28;20025;-71
2023/12/16 03:30:38;;;;;;;20.63;8.57;;;6.90;99.90;;;;;;5041814;28;20068;-70
2023/12/16 03:33:04;;;;;;;19.25;7.70;;;6.90;99.90;;;;;;5039892;28;20032;-70
2023/12/16 03:35:29;;;;;;;30.85;10.02;;;6.90;99.90;;;;;;5041982;28;20037;-70
2023/12/16 03:37:56;;;;;;;19.33;8.48;;;6.90;99.90;;;;;;5042374;28;20037;-70
2023/12/16 03:40:21;;;;;;;26.75;8.80;;;6.90;99.90;;;;;;5042578;28;20025;-71
2023/12/16 03:42:47;;;;;;;20.77;8.38;;;6.90;99.90;;;;;;5041843;28;20982;-71
2023/12/16 03:45:12;;;;;;;20.05;7.85;;;6.90;99.90;;;;;;5042588;28;20025;-70
2023/12/16 03:47:38;;;;;;;23.17;8.13;;;6.90;99.90;;;;;;5041710;28;20506;-71
2023/12/16 03:50:04;;;;;;;19.83;8.30;;;6.90;99.90;;;;;;5042295;28;20643;-71
2023/12/16 03:52:29;;;;;;;23.83;8.82;;;6.90;99.90;;;;;;5038361;28;20036;-71
2023/12/16 03:54:54;;;;;;;16.80;7.35;;;6.90;99.90;;;;;;5042557;28;20025;-71
2023/12/16 03:57:20;;;;;;;21.92;7.90;;;6.90;99.90;;;;;;5039792;28;20406;-71
2023/12/16 03:59:46;;;;;;;24.85;7.90;;;6.80;99.90;;;;;;5039068;28;20029;-70
2023/12/16 04:02:11;;;;;;;26.15;7.45;;;6.90;99.90;;;;;;5036441;28;20113;-69
2023/12/16 04:04:37;;;;;;;20.15;6.85;;;6.80;99.90;;;;;;5040784;28;20056;-70
2023/12/16 04:07:02;;;;;;;21.73;8.38;;;6.80;99.90;;;;;;5043945;28;20033;-71
2023/12/16 04:09:28;;;;;;;22.35;9.00;;;6.80;99.90;;;;;;5040577;28;20088;-71
2023/12/16 04:11:54;;;;;;;22.08;7.60;;;6.80;99.90;;;;;;5041938;28;20104;-71
2023/12/16 04:14:19;;;;;;;19.92;8.20;;;6.80;99.90;;;;;;5038923;28;20526;-70
2023/12/16 04:16:45;;;;;;;22.55;7.38;;;6.70;99.90;;;;;;5040402;28;20107;-70
2023/12/16 04:19:12;;;;;;;22.98;7.72;;;6.70;99.90;;;;;;5036501;28;20025;-70
2023/12/16 04:21:38;;;;;;;19.85;8.65;;;6.70;99.90;;;;;;5042898;28;20032;-71
2023/12/16 04:24:03;;;;;;;22.55;7.45;;;6.70;99.90;;;;;;5037127;28;20112;-70
2023/12/16 04:26:29;;;;;;;16.35;7.60;;;6.60;99.90;;;;;;5041785;28;20037;-70
2023/12/16 04:28:55;;;;;;;16.55;7.20;;;6.60;99.90;;;;;;5035573;28;20028;-70
2023/12/16 04:31:20;;;;;;;20.65;8.23;;;6.50;99.90;;;;;;5041643;28;20632;-70
2023/12/16 04:33:46;;;;;;;23.40;8.15;;;6.50;99.90;;;;;;5039627;28;20040;-70
2023/12/16 04:36:13;;;;;;;30.42;9.45;;;6.40;99.90;;;;;;5042701;28;20112;-70
2023/12/16 04:38:39;;;;;;;20.48;9.10;;;6.30;99.90;;;;;;5041895;28;20053;-70
2023/12/16 04:41:04;;;;;;;18.50;9.50;;;6.30;99.90;;;;;;5036965;28;20033;-71
2023/12/16 04:43:30;;;;;;;18.10;7.60;;;6.20;99.90;;;;;;5037769;28;20698;-71
2023/12/16 04:45:55;;;;;;;23.60;9.13;;;6.30;99.90;;;;;;5039621;28;20035;-70
2023/12/16 04:48:21;;;;;;;19.75;8.70;;;6.20;99.90;;;;;;5039510;28;20044;-70
2023/12/16 04:50:46;;;;;;;23.30;10.13;;;6.30;99.90;;;;;;5041225;28;20037;-70
2023/12/16 04:53:12;;;;;;;27.50;10.85;;;6.30;99.90;;;;;;5041144;28;20051;-69
2023/12/16 04:55:37;;;;;;;16.02;9.25;;;6.30;99.90;;;;;;5039000;28;21205;-70
2023/12/16 04:58:03;;;;;;;22.60;8.65;;;6.40;99.90;;;;;;5037779;28;20045;-70
2023/12/16 05:00:29;;;;;;;27.90;10.15;;;6.40;99.90;;;;;;5036961;28;20028;-71
2023/12/16 05:02:55;;;;;;;27.63;10.30;;;6.40;99.90;;;;;;5032037;28;20433;-70
2023/12/16 05:05:20;;;;;;;29.27;11.00;;;6.50;99.90;;;;;;5036964;28;20105;-70
2023/12/16 05:07:46;;;;;;;26.40;10.55;;;6.50;99.90;;;;;;5036333;28;20053;-71
2023/12/16 05:10:11;;;;;;;25.85;11.45;;;6.60;99.90;;;;;;5034229;28;20025;-70
2023/12/16 05:12:40;;;;;;;30.95;12.38;;;6.60;99.90;;;;;;5040849;28;20070;-75
2023/12/16 05:15:07;;;;;;;26.70;12.20;;;6.70;99.90;;;;;;5033914;28;20044;-76
2023/12/16 05:17:33;;;;;;;20.20;11.50;;;6.70;99.90;;;;;;5038283;28;20037;-75
2023/12/16 05:19:58;;;;;;;26.75;11.63;;;6.80;99.90;;;;;;5038007;28;20047;-75
2023/12/16 05:22:24;;;;;;;35.17;13.18;;;6.80;99.90;;;;;;5041702;28;20024;-75
2023/12/16 05:24:50;;;;;;;34.33;12.32;;;6.80;99.90;;;;;;5039474;28;20029;-76
2023/12/16 05:27:15;;;;;;;28.27;13.15;;;6.80;99.90;;;;;;5037292;28;20505;-76
2023/12/16 05:29:41;;;;;;;23.98;10.82;;;6.80;99.90;;;;;;5035416;28;20390;-75
2023/12/16 05:32:06;;;;;;;26.42;11.43;;;6.80;99.90;;;;;;5038536;28;20037;-76
2023/12/16 05:34:32;;;;;;;35.95;13.20;;;6.90;99.90;;;;;;5040318;28;20083;-76
2023/12/16 05:36:58;;;;;;;28.75;11.73;;;6.80;99.90;;;;;;5033985;28;20455;-74
2023/12/16 05:39:24;;;;;;;24.98;10.77;;;6.80;99.90;;;;;;5040741;28;20118;-75
2023/12/16 05:41:49;;;;;;;31.67;13.00;;;6.90;99.90;;;;;;5036655;28;20390;-74
2023/12/16 05:44:15;;;;;;;27.83;12.18;;;6.90;99.90;;;;;;5039668;28;20037;-70
2023/12/16 05:46:40;;;;;;;27.52;11.35;;;6.90;99.90;;;;;;5038637;28;20712;-71
2023/12/16 05:49:06;;;;;;;30.52;12.00;;;6.90;99.90;;;;;;5038787;28;20036;-56
2023/12/16 05:51:42;;;;;;;28.35;12.70;;;6.90;99.90;;;;;;5040377;28;20411;-54
2023/12/16 05:54:10;;;;;;;29.95;10.73;;;6.90;99.90;;;;;;5054938;28;20025;-56
2023/12/16 05:56:36;;;;;;;24.38;10.65;;;6.90;99.90;;;;;;5039416;28;20040;-56
2023/12/16 05:59:01;;;;;;;23.92;11.48;;;6.80;99.90;;;;;;5040977;28;20604;-57
2023/12/16 06:01:27;;;;;;;32.80;11.63;;;6.80;99.90;;;;;;5037357;28;20075;-52
2023/12/16 06:03:52;;;;;;;25.10;10.52;;;6.80;99.90;;;;;;5032825;28;20032;-56
2023/12/16 06:06:18;;;;;;;27.85;11.85;;;6.70;99.90;;;;;;5039145;28;20529;-56
2023/12/16 06:08:44;;;;;;;23.92;11.45;;;6.70;99.90;;;;;;5040078;28;20028;-56
2023/12/16 06:11:12;;;;;;;29.42;11.93;;;6.60;99.90;;;;;;5038362;28;20720;-55
2023/12/16 06:13:42;;;;;;;24.52;11.77;;;6.60;99.90;;;;;;5037308;28;20036;-52
2023/12/16 06:16:07;;;;;;;17.52;9.73;;;6.50;99.90;;;;;;5037710;28;20040;-53
2023/12/16 06:18:34;;;;;;;23.77;10.27;;;6.50;99.90;;;;;;5037566;28;20082;-54
2023/12/16 06:20:59;;;;;;;23.85;10.43;;;6.50;99.90;;;;;;5038267;28;20024;-55
2023/12/16 06:23:26;;;;;;;32.70;11.40;;;6.50;99.90;;;;;;5039816;28;20025;-55
2023/12/16 06:25:52;;;;;;;31.48;12.32;;;6.40;99.90;;;;;;5037544;28;20029;-56
2023/12/16 06:28:17;;;;;;;22.90;10.77;;;6.40;99.90;;;;;;5039114;28;20139;-55
2023/12/16 06:30:44;;;;;;;23.90;11.15;;;6.30;99.90;;;;;;5035529;28;20044;-55
2023/12/16 06:33:10;;;;;;;33.40;10.50;;;6.30;99.90;;;;;;5037586;28;20025;-54
2023/12/16 06:35:35;;;;;;;30.60;12.13;;;6.20;99.90;;;;;;5041353;28;20025;-56
2023/12/16 06:38:01;;;;;;;32.90;11.88;;;6.20;99.90;;;;;;5038930;28;20037;-52
2023/12/16 06:40:31;;;;;;;28.23;12.52;;;6.20;99.90;;;;;;5039883;28;20028;-55
2023/12/16 06:42:57;;;;;;;30.35;12.00;;;6.20;99.90;;;;;;5037150;28;20691;-54
2023/12/16 06:45:23;;;;;;;28.60;11.48;;;6.20;99.90;;;;;;5039443;28;20100;-52
2023/12/16 06:47:48;;;;;;;24.95;9.75;;;6.20;99.90;;;;;;5038604;28;20486;-56
2023/12/16 06:50:14;;;;;;;26.25;11.13;;;6.20;99.90;;;;;;5039869;28;20075;-55
2023/12/16 06:52:39;;;;;;;24.58;10.18;;;6.20;99.90;;;;;;5038467;28;20031;-55
2023/12/16 06:55:05;;;;;;;30.95;10.68;;;6.20;99.90;;;;;;5037180;28;20509;-52
2023/12/16 06:57:31;;;;;;;26.75;10.77;;;6.30;99.90;;;;;;5036795;28;20546;-55
2023/12/16 06:59:56;;;;;;;24.45;10.68;;;6.30;99.90;;;;;;5040418;28;20025;-56
2023/12/16 07:02:22;;;;;;;24.85;10.65;;;6.40;99.90;;;;;;5036221;28;20097;-56
2023/12/16 07:04:48;;;;;;;26.83;11.57;;;6.40;99.90;;;;;;5042930;28;20691;-52
2023/12/16 07:07:13;;;;;;;30.60;11.07;;;6.40;99.90;;;;;;5037731;28;20032;-54
2023/12/16 07:09:42;;;;;;;26.67;10.15;;;6.50;99.90;;;;;;5042564;28;20479;-55
2023/12/16 07:12:07;;;;;;;24.90;10.88;;;6.50;99.90;;;;;;5039592;28;20458;-57
2023/12/16 07:14:34;;;;;;;32.00;11.18;;;6.50;99.90;;;;;;5033102;28;20040;-57
2023/12/16 07:17:00;;;;;;;23.00;8.77;;;6.50;99.90;;;;;;5033315;28;20714;-57
2023/12/16 07:19:27;;;;;;;24.60;10.13;;;6.60;99.90;;;;;;5036037;28;20037;-58
2023/12/16 07:21:53;;;;;;;28.20;10.07;;;6.60;99.90;;;;;;5041860;28;20022;-56
2023/12/16 07:24:18;;;;;;;21.50;8.68;;;6.60;99.90;;;;;;5035726;28;20029;-57
2023/12/16 07:26:44;;;;;;;20.02;7.90;;;6.70;99.90;;;;;;5033166;28;20108;-54
2023/12/16 07:29:09;;;;;;;30.45;9.07;;;6.70;99.90;;;;;;5037353;28;20013;-57
2023/12/16 07:31:35;;;;;;;22.27;9.18;;;6.70;99.90;;;;;;5036345;28;20447;-56
2023/12/16 07:34:00;;;;;;;25.23;8.25;;;6.70;99.90;;;;;;5036097;28;20029;-56
2023/12/16 07:36:25;;;;;;;18.55;8.77;;;6.80;99.90;;;;;;5042771;28;20485;-57
2023/12/16 07:38:51;;;;;;;18.10;8.30;;;6.80;99.90;;;;;;5036940;28;20041;-58
2023/12/16 07:41:16;;;;;;;28.67;10.40;;;6.80;99.90;;;;;;5039583;28;20029;-58
2023/12/16 07:43:42;;;;;;;20.83;8.45;;;6.80;99.90;;;;;;5036971;28;20033;-56
2023/12/16 07:46:08;;;;;;;21.27;8.82;;;6.90;99.90;;;;;;5035031;28;20505;-53
2023/12/16 07:48:33;;;;;;;27.08;9.50;;;6.90;99.90;;;;;;5041235;28;20025;-56
2023/12/16 07:50:59;;;;;;;26.02;9.10;;;6.90;99.90;;;;;;5039942;28;20810;-55
2023/12/16 07:53:24;;;;;;;22.98;7.88;;;7.00;99.90;;;;;;5037966;28;20035;-57
2023/12/16 07:55:50;;;;;;;21.10;8.40;;;7.00;99.90;;;;;;5037025;28;20417;-56
2023/12/16 07:58:15;;;;;;;22.90;8.60;;;7.00;99.90;;;;;;5034505;28;20056;-54
2023/12/16 08:00:42;;;;;;;22.10;8.35;;;7.00;99.90;;;;;;5035956;28;20057;-57
2023/12/16 08:03:07;;;;;;;19.52;8.02;;;7.00;99.90;;;;;;5037535;28;20101;-57
2023/12/16 08:05:33;;;;;;;26.35;8.45;;;7.00;99.90;;;;;;5038690;28;20100;-56
2023/12/16 08:07:59;;;;;;;18.42;8.07;;;7.10;99.90;;;;;;5040562;28;20400;-56
2023/12/16 08:10:24;;;;;;;23.42;8.77;;;7.10;99.90;;;;;;5042576;28;20025;-57
2023/12/16 08:12:50;;;;;;;16.58;7.40;;;7.10;99.90;;;;;;5039412;28;20102;-56
2023/12/16 08:15:16;;;;;;;20.42;8.43;;;7.10;99.90;;;;;;5040581;28;20025;-56
2023/12/16 08:17:41;;;;;;;19.73;8.05;;;7.20;99.90;;;;;;5040514;28;20094;-55
2023/12/16 08:20:08;;;;;;;20.20;7.07;;;7.20;99.90;;;;;;5037686;28;20393;-57
2023/12/16 08:22:34;;;;;;;17.08;6.55;;;7.20;99.90;;;;;;5040716;28;20025;-57
2023/12/16 08:25:00;;;;;;;19.92;7.20;;;7.30;99.90;;;;;;5040444;28;20064;-53
2023/12/16 08:27:25;;;;;;;16.52;6.32;;;7.30;99.90;;;;;;5040236;28;20538;-57
2023/12/16 08:29:51;;;;;;;17.20;6.15;;;7.30;99.90;;;;;;5040251;28;20025;-53
2023/12/16 08:32:16;;;;;;;15.57;6.07;;;7.30;99.90;;;;;;5040114;28;20493;-53
2023/12/16 08:34:42;;;;;;;23.00;7.43;;;7.40;99.90;;;;;;5040323;28;20056;-54
2023/12/16 08:37:08;;;;;;;16.65;6.65;;;7.40;99.90;;;;;;5041200;28;20044;-52
2023/12/16 08:39:33;;;;;;;20.77;6.90;;;7.40;99.90;;;;;;5041848;28;20462;-55
2023/12/16 08:41:59;;;;;;;22.02;7.40;;;7.50;99.90;;;;;;5040232;28;20027;-55
2023/12/16 08:44:25;;;;;;;18.38;7.20;;;7.50;99.90;;;;;;5039374;28;20036;-55
2023/12/16 08:46:50;;;;;;;19.13;6.40;;;7.50;99.90;;;;;;5038515;28;20036;-56
2023/12/16 08:49:16;;;;;;;16.85;6.43;;;7.50;99.90;;;;;;5036927;28;20052;-56
2023/12/16 08:51:41;;;;;;;16.52;6.10;;;7.50;99.90;;;;;;5041782;28;20059;-56
2023/12/16 08:54:07;;;;;;;18.75;7.07;;;7.50;99.90;;;;;;5035894;28;20017;-59
2023/12/16 08:56:33;;;;;;;13.40;5.30;;;7.60;99.90;;;;;;5038704;28;20124;-58
2023/12/16 08:58:58;;;;;;;17.65;7.03;;;7.60;99.90;;;;;;5039596;28;20112;-56
2023/12/16 09:01:24;;;;;;;16.80;6.47;;;7.60;99.90;;;;;;5035264;28;20035;-55
2023/12/16 09:03:49;;;;;;;15.55;6.10;;;7.60;99.90;;;;;;5033821;28;20044;-54
2023/12/16 09:06:15;;;;;;;17.33;7.45;;;7.60;99.90;;;;;;5037362;28;20686;-56
2023/12/16 09:08:40;;;;;;;20.08;6.43;;;7.60;99.90;;;;;;5038832;28;20083;-52
2023/12/16 09:11:06;;;;;;;14.45;5.82;;;7.70;99.90;;;;;;5039849;28;20557;-56
2023/12/16 09:13:31;;;;;;;15.88;6.55;;;7.70;99.90;;;;;;5037171;28;20048;-54
2023/12/16 09:15:57;;;;;;;17.55;6.53;;;7.70;99.90;;;;;;5037943;28;20029;-54
2023/12/16 09:18:23;;;;;;;15.80;5.45;;;7.80;99.90;;;;;;5039447;28;20040;-54
2023/12/16 09:20:48;;;;;;;13.75;6.43;;;7.90;99.90;;;;;;5036853;28;20039;-54
2023/12/16 09:23:14;;;;;;;23.42;6.22;;;7.90;99.90;;;;;;5039051;28;20436;-55
2023/12/16 09:25:39;;;;;;;12.32;6.00;;;7.90;99.90;;;;;;5041278;28;20072;-52
2023/12/16 09:28:05;;;;;;;13.35;5.50;;;8.00;99.90;;;;;;5037059;28;20040;-54
2023/12/16 09:30:31;;;;;;;17.00;5.55;;;8.00;99.90;;;;;;5037445;28;20041;-52
2023/12/16 09:32:56;;;;;;;9.95;5.00;;;8.10;99.90;;;;;;5037775;28;20066;-55
2023/12/16 09:35:22;;;;;;;17.20;5.88;;;8.10;99.90;;;;;;5036985;28;20052;-54
2023/12/16 09:37:49;;;;;;;11.80;5.00;;;8.20;99.90;;;;;;5034460;28;20429;-56
2023/12/16 09:40:14;;;;;;;14.43;5.32;;;8.20;99.90;;;;;;5036944;28;20053;-56
2023/12/16 09:42:42;;;;;;;14.13;4.55;;;8.30;99.90;;;;;;5038154;28;20093;-55
2023/12/16 09:45:11;;;;;;;14.52;5.13;;;8.30;99.90;;;;;;5036866;28;20104;-56
2023/12/16 09:47:37;;;;;;;19.70;6.93;;;8.40;99.90;;;;;;5033183;28;20717;-55
2023/12/16 09:50:03;;;;;;;13.65;5.53;;;8.40;99.90;;;;;;5038441;28;20082;-54
2023/12/16 09:52:29;;;;;;;21.25;5.70;;;8.40;99.90;;;;;;5035228;28;20033;-56
2023/12/16 09:54:54;;;;;;;14.13;5.68;;;8.40;99.90;;;;;;5032935;28;20029;-56
2023/12/16 09:57:22;;;;;;;17.13;4.95;;;8.60;99.90;;;;;;5037243;28;20067;-53
2023/12/16 09:59:48;;;;;;;16.52;5.80;;;8.70;99.90;;;;;;5039097;28;20563;-57
2023/12/16 10:02:28;;;;;;;12.45;5.13;;;8.70;99.90;;;;;;5032913;28;20021;-55
2023/12/16 10:04:58;;;;;;;14.25;4.45;;;8.70;99.90;;;;;;5036691;28;20541;-54
2023/12/16 10:07:24;;;;;;;12.57;4.43;;;8.80;99.90;;;;;;5033121;28;20498;-52
2023/12/16 10:09:49;;;;;;;16.63;5.57;;;8.80;99.90;;;;;;5039425;28;20132;-57
2023/12/16 10:12:15;;;;;;;10.95;3.90;;;8.80;99.90;;;;;;5037394;28;20029;-55
2023/12/16 10:14:48;;;;;;;10.43;4.53;;;8.90;99.90;;;;;;5034210;28;20311;-55
2023/12/16 10:17:18;;;;;;;16.55;4.85;;;8.90;99.90;;;;;;5034744;28;20819;-54
2023/12/16 10:19:45;;;;;;;11.98;3.90;;;8.90;99.90;;;;;;5031191;28;20025;-53
2023/12/16 10:22:17;;;;;;;12.98;4.20;;;8.90;99.90;;;;;;5034766;28;20013;-56
2023/12/16 10:24:44;;;;;;;13.35;3.92;;;8.90;99.90;;;;;;5031784;28;20060;-58
2023/12/16 10:27:11;;;;;;;13.23;4.22;;;9.00;99.90;;;;;;5036069;28;20460;-56
2023/12/16 10:29:39;;;;;;;11.40;4.38;;;9.00;99.90;;;;;;5036213;28;20033;-54
2023/12/16 10:32:08;;;;;;;13.07;3.97;;;9.00;99.90;;;;;;5035486;28;20021;-56
2023/12/16 10:34:33;;;;;;;13.35;3.83;;;9.10;99.90;;;;;;5031892;28;20060;-54
2023/12/16 10:37:05;;;;;;;14.70;3.95;;;9.10;99.90;;;;;;5040528;28;20056;-52
2023/12/16 10:39:31;;;;;;;10.82;4.30;;;9.20;99.90;;;;;;5037163;28;20029;-54
2023/12/16 10:41:57;;;;;;;14.93;4.15;;;9.20;99.90;;;;;;5039805;28;20020;-54
2023/12/16 10:44:23;;;;;;;11.95;3.60;;;9.20;99.90;;;;;;5038998;28;20438;-56
2023/12/16 10:46:51;;;;;;;9.48;3.42;;;9.20;99.90;;;;;;5042301;28;20033;-54
2023/12/16 10:49:17;;;;;;;9.32;3.67;;;9.20;99.90;;;;;;5037676;28;20060;-56
2023/12/16 10:51:48;;;;;;;7.78;3.60;;;9.20;99.90;;;;;;5040399;28;20048;-53
2023/12/16 10:54:31;;;;;;;8.95;2.95;;;9.20;99.90;;;;;;5039602;28;20740;-56
2023/12/16 10:57:47;;;;;;;8.82;3.17;;;9.20;99.90;;;;;;5041719;28;20029;-55
2023/12/16 11:00:23;;;;;;;16.10;6.22;;;9.20;99.90;;;;;;4982910;28;20483;-52
2023/12/16 11:03:07;;;;;;;16.55;4.50;;;9.30;99.90;;;;;;4981908;28;20026;-51
2023/12/16 11:05:42;;;;;;;11.20;4.03;;;9.30;99.90;;;;;;5020180;28;20037;-54
2023/12/16 11:08:08;;;;;;;12.90;3.38;;;9.30;99.90;;;;;;5040710;28;20021;-56
2023/12/16 11:10:35;;;;;;;16.05;4.80;;;9.40;99.90;;;;;;5041824;28;20028;-55
2023/12/16 11:13:02;;;;;;;8.75;4.28;;;9.30;99.90;;;;;;5040344;28;20013;-55
2023/12/16 11:15:30;;;;;;;14.50;4.03;;;9.40;99.90;;;;;;5041768;28;20041;-55
2023/12/16 11:18:13;;;;;;;11.80;4.03;;;9.40;99.90;;;;;;5037766;28;20033;-52
2023/12/16 11:20:44;;;;;;;12.05;3.88;;;9.50;99.90;;;;;;5042790;28;20461;-54
2023/12/16 11:23:10;;;;;;;11.45;4.00;;;9.50;99.90;;;;;;5042924;28;20020;-52
2023/12/16 11:25:36;;;;;;;9.30;3.28;;;9.50;99.90;;;;;;5042733;28;20033;-53
2023/12/16 11:28:04;;;;;;;9.35;3.28;;;9.40;99.90;;;;;;5042321;28;20117;-54
2023/12/16 11:30:32;;;;;;;13.25;3.25;;;9.30;99.90;;;;;;5042414;28;20037;-54
2023/12/16 11:32:58;;;;;;;10.93;2.78;;;9.30;99.90;;;;;;5042441;28;20075;-54
2023/12/16 11:35:36;;;;;;;14.40;3.63;;;9.20;99.90;;;;;;5042297;28;20025;-54
2023/12/16 11:38:02;;;;;;;11.23;3.15;;;9.10;99.90;;;;;;5042206;28;20596;-55
2023/12/16 11:40:48;;;;;;;10.65;3.83;;;9.10;99.90;;;;;;5042232;28;20036;-55
2023/12/16 11:43:14;;;;;;;10.35;2.97;;;9.00;99.90;;;;;;5040264;28;20036;-55
2023/12/16 11:45:44;;;;;;;9.68;3.17;;;9.00;99.90;;;;;;5041356;28;20098;-55
2023/12/16 11:48:12;;;;;;;10.75;3.00;;;9.00;99.90;;;;;;5041651;28;20457;-53
2023/12/16 11:50:42;;;;;;;7.88;2.45;;;8.90;99.90;;;;;;5042110;28;20017;-66
2023/12/16 11:53:09;;;;;;;7.15;3.30;;;8.90;99.90;;;;;;5041081;28;20233;-74
2023/12/16 11:55:35;;;;;;;9.77;3.63;;;8.80;99.90;;;;;;5042283;28;20036;-75
2023/12/16 11:58:02;;;;;;;12.98;3.38;;;8.80;99.90;;;;;;5042079;28;20637;-75
2023/12/16 12:00:28;;;;;;;9.88;3.13;;;8.70;99.90;;;;;;5043836;28;20035;-74
2023/12/16 12:02:54;;;;;;;12.07;2.97;;;8.70;99.90;;;;;;5033963;28;20092;-75
2023/12/16 12:05:19;;;;;;;8.50;2.60;;;8.70;99.90;;;;;;5042347;28;20092;-75
2023/12/16 12:07:45;;;;;;;9.30;3.03;;;8.70;99.90;;;;;;5042146;28;20447;-75
2023/12/16 12:10:11;;;;;;;10.40;2.90;;;8.70;99.90;;;;;;5042046;28;20098;-76
2023/12/16 12:12:37;;;;;;;10.40;3.28;;;8.70;99.90;;;;;;5041919;28;20079;-74
2023/12/16 12:15:03;;;;;;;12.07;2.97;;;8.70;99.90;;;;;;5044101;28;20092;-75
2023/12/16 12:17:29;;;;;;;11.15;3.20;;;8.70;99.90;;;;;;5036185;28;20037;-75
2023/12/16 12:19:59;;;;;;;10.30;2.83;;;8.70;99.90;;;;;;5041511;28;20025;-75
2023/12/16 12:22:24;;;;;;;11.18;3.28;;;8.60;99.90;;;;;;5042006;28;20096;-75
2023/12/16 12:24:50;;;;;;;8.13;2.78;;;8.60;99.90;;;;;;5041862;28;20088;-75
2023/12/16 12:27:19;;;;;;;12.32;3.33;;;8.60;99.90;;;;;;5041773;28;20437;-74
2023/12/16 12:30:00;;;;;;;9.18;3.17;;;8.60;99.90;;;;;;5040487;28;20116;-75
2023/12/16 12:32:27;;;;;;;7.10;2.85;;;8.60;99.90;;;;;;5041848;28;20025;-75
2023/12/16 12:35:07;;;;;;;6.80;2.97;;;8.50;99.90;;;;;;5041699;28;20013;-75
2023/12/16 12:37:39;;;;;;;13.30;3.15;;;8.50;99.90;;;;;;5041435;28;20025;-75
2023/12/16 12:40:20;;;;;;;7.80;3.30;;;8.50;99.90;;;;;;5039472;28;20056;-75
2023/12/16 12:42:56;;;;;;;8.98;2.92;;;8.50;99.90;;;;;;5039180;28;20558;-75
2023/12/16 12:45:22;;;;;;;;;;;8.50;99.90;;;;;;5041874;28;20032;-79